createdAt,value
2017-04-12T00:01:07.038Z,83.14
2017-04-12T00:02:28.548Z,82.86
2017-04-12T00:03:50.988Z,83.09
2017-04-12T00:05:13.127Z,82.61
2017-04-12T00:06:35.260Z,82.67
2017-04-12T00:07:57.081Z,83.09
2017-04-12T00:09:18.906Z,82.48
2017-04-12T00:10:40.450Z,82.61
2017-04-12T00:12:02.212Z,83.09
2017-04-12T00:13:24.359Z,82.7
2017-04-12T00:14:46.185Z,82.67
2017-04-12T00:16:07.708Z,82.14
2017-04-12T00:17:29.850Z,82.48
2017-04-12T00:18:52.303Z,82.67
2017-04-12T00:20:14.439Z,83.18
2017-04-12T00:21:36.598Z,83.37
2017-04-12T00:22:58.444Z,82.57
2017-04-12T00:24:20.600Z,82.19
2017-04-12T00:25:42.182Z,82.86
2017-04-12T00:27:03.426Z,82.57
2017-04-12T00:28:25.557Z,82.19
2017-04-12T00:29:47.071Z,82.9
2017-04-12T00:31:08.880Z,82.8
2017-04-12T00:32:31.056Z,82.9
2017-04-12T00:33:52.549Z,83.14
2017-04-12T00:35:14.999Z,82.14
2017-04-12T00:36:36.879Z,82.76
2017-04-12T00:37:59.092Z,81.9
2017-04-12T00:39:21.191Z,81.85
2017-04-12T00:40:42.728Z,81.37
2017-04-12T00:42:04.588Z,80.9
2017-04-12T00:43:26.737Z,81.18
2017-04-12T00:44:49.152Z,81.66
2017-04-12T00:46:10.719Z,81.18
2017-04-12T00:47:33.002Z,81.56
2017-04-12T00:48:54.568Z,81.37
2017-04-12T00:50:16.699Z,81.37
2017-04-12T00:51:38.208Z,81.66
2017-04-12T00:53:00.089Z,81.28
2017-04-12T00:54:22.252Z,81.47
2017-04-12T00:55:45.049Z,80.99
2017-04-12T00:57:07.176Z,81.37
2017-04-12T00:58:29.294Z,80.99
2017-04-12T00:59:50.840Z,80.9
2017-04-12T01:01:13.209Z,81.09
2017-04-12T01:02:35.090Z,81.47
2017-04-12T01:03:56.960Z,81.47
2017-04-12T01:05:19.146Z,81.47
2017-04-12T01:06:41.210Z,81.47
2017-04-12T01:08:03.397Z,81.76
2017-04-12T01:09:24.599Z,81.85
2017-04-12T01:10:46.720Z,82.23
2017-04-12T01:12:08.488Z,83.28
2017-04-12T01:13:30.630Z,82.8
2017-04-12T01:14:53.098Z,82.14
2017-04-12T01:16:14.985Z,83.09
2017-04-12T01:17:37.061Z,83.47
2017-04-12T01:18:58.887Z,83.75
2017-04-12T01:20:21.161Z,83.65
2017-04-12T01:21:43.321Z,83.75
2017-04-12T01:23:05.478Z,83.94
2017-04-12T01:24:27.298Z,83.28
2017-04-12T01:25:49.226Z,83.18
2017-04-12T01:27:11.415Z,83.65
2017-04-12T01:28:33.238Z,83.37
2017-04-12T01:29:55.702Z,83.65
2017-04-12T01:31:17.840Z,83.56
2017-04-12T01:32:40.010Z,83.09
2017-04-12T01:34:02.130Z,82.99
2017-04-12T01:35:23.941Z,82.7
2017-04-12T01:36:46.397Z,82.61
2017-04-12T01:38:07.889Z,82.04
2017-04-12T01:39:29.704Z,82.99
2017-04-12T01:40:51.200Z,83.09
2017-04-12T01:42:13.023Z,82.61
2017-04-12T01:43:34.858Z,82.7
2017-04-12T01:44:57.677Z,82.42
2017-04-12T01:46:19.828Z,82.23
2017-04-12T01:47:41.322Z,82.51
2017-04-12T01:49:02.928Z,83.09
2017-04-12T01:50:25.427Z,82.8
2017-04-12T01:51:47.259Z,82.9
2017-04-12T01:53:09.399Z,83.18
2017-04-12T01:54:31.235Z,83.28
2017-04-12T01:55:52.879Z,83.18
2017-04-12T01:57:14.749Z,83.09
2017-04-12T01:58:36.662Z,83.56
2017-04-12T01:59:58.588Z,83.18
2017-04-12T02:01:21.360Z,82.99
2017-04-12T02:02:43.809Z,83.18
2017-04-12T02:04:05.632Z,83.37
2017-04-12T02:05:27.609Z,82.99
2017-04-12T02:06:49.990Z,83.18
2017-04-12T02:08:11.805Z,83.28
2017-04-12T02:09:34.007Z,84.04
2017-04-12T02:10:56.255Z,83.56
2017-04-12T02:12:18.336Z,83.18
2017-04-12T02:13:40.481Z,83.18
2017-04-12T02:15:02.297Z,83.65
2017-04-12T02:16:24.422Z,83.65
2017-04-12T02:17:46.225Z,83.47
2017-04-12T02:19:08.363Z,83.85
2017-04-12T02:20:30.297Z,84.13
2017-04-12T02:21:52.582Z,84.23
2017-04-12T02:23:14.644Z,84.61
2017-04-12T02:24:36.219Z,85.37
2017-04-12T02:25:57.836Z,85.08
2017-04-12T02:27:19.039Z,85.47
2017-04-12T02:28:41.215Z,85.08
2017-04-12T02:30:03.060Z,85.56
2017-04-12T02:31:24.885Z,84.8
2017-04-12T02:32:47.076Z,85.08
2017-04-12T02:34:09.146Z,85.47
2017-04-12T02:35:30.963Z,84.52
2017-04-12T02:36:52.789Z,84.52
2017-04-12T02:38:14.939Z,84.42
2017-04-12T02:39:37.248Z,84.61
2017-04-12T02:40:59.075Z,84.42
2017-04-12T02:42:20.598Z,84.7
2017-04-12T02:43:42.774Z,84.99
2017-04-12T02:45:05.320Z,84.61
2017-04-12T02:46:27.499Z,84.89
2017-04-12T02:47:49.319Z,85.18
2017-04-12T02:49:11.624Z,85.28
2017-04-12T02:50:34.127Z,85.75
2017-04-12T02:51:55.968Z,84.8
2017-04-12T02:53:17.900Z,85.28
2017-04-12T02:54:40.044Z,85.18
2017-04-12T02:56:02.828Z,84.99
2017-04-12T02:57:25.104Z,84.61
2017-04-12T02:58:47.001Z,85.56
2017-04-12T03:00:09.243Z,84.89
2017-04-12T03:01:31.388Z,85.47
2017-04-12T03:02:53.925Z,85.47
2017-04-12T03:04:15.456Z,85.47
2017-04-12T03:05:37.467Z,84.8
2017-04-12T03:06:59.527Z,85.85
2017-04-12T03:08:21.045Z,85.18
2017-04-12T03:09:43.217Z,85.56
2017-04-12T03:11:05.687Z,84.99
2017-04-12T03:12:28.186Z,85.08
2017-04-12T03:13:50.113Z,85.08
2017-04-12T03:15:12.038Z,85.56
2017-04-12T03:16:33.545Z,85.08
2017-04-12T03:17:55.520Z,85.66
2017-04-12T03:19:17.645Z,85.56
2017-04-12T03:20:39.638Z,85.47
2017-04-12T03:22:01.950Z,85.85
2017-04-12T03:23:23.510Z,85.85
2017-04-12T03:24:45.115Z,85.94
2017-04-12T03:26:07.343Z,85.85
2017-04-12T03:27:29.250Z,86.04
2017-04-12T03:28:51.324Z,86.04
2017-04-12T03:30:12.843Z,85.85
2017-04-12T03:31:34.105Z,86.13
2017-04-12T03:32:55.947Z,86.13
2017-04-12T03:34:17.747Z,86.22
2017-04-12T03:35:39.889Z,86.61
2017-04-12T03:37:01.701Z,86.04
2017-04-12T03:38:23.868Z,86.61
2017-04-12T03:39:46.038Z,87.08
2017-04-12T03:41:08.175Z,86.99
2017-04-12T03:42:29.991Z,87.13
2017-04-12T03:43:51.837Z,86.9
2017-04-12T03:45:13.315Z,86.7
2017-04-12T03:46:35.236Z,87.27
2017-04-12T03:47:56.399Z,87.37
2017-04-12T03:49:17.272Z,87.61
2017-04-12T03:50:39.442Z,87.37
2017-04-12T03:52:01.262Z,87.52
2017-04-12T03:53:23.739Z,87.75
2017-04-12T03:54:45.266Z,87.75
2017-04-12T03:56:07.746Z,87.13
2017-04-12T03:57:29.898Z,87.85
2017-04-12T03:58:51.737Z,87.61
2017-04-12T04:00:13.540Z,87.32
2017-04-12T04:01:36.259Z,87.61
2017-04-12T04:02:58.104Z,87.99
2017-04-12T04:04:20.137Z,88.37
2017-04-12T04:05:41.347Z,88.75
2017-04-12T04:07:03.786Z,88.37
2017-04-12T04:08:24.996Z,88.75
2017-04-12T04:09:47.435Z,89.42
2017-04-12T04:11:09.258Z,89.61
2017-04-12T04:12:31.016Z,89.7
2017-04-12T04:13:52.848Z,89.89
2017-04-12T04:15:15.036Z,89.89
2017-04-12T04:16:36.974Z,90.08
2017-04-12T04:17:59.494Z,90.18
2017-04-12T04:19:21.323Z,89.99
2017-04-12T04:20:43.127Z,90.08
2017-04-12T04:22:04.944Z,90.18
2017-04-12T04:23:26.408Z,90.37
2017-04-12T04:24:48.531Z,90.47
2017-04-12T04:26:10.747Z,90.37
2017-04-12T04:27:32.073Z,90.94
2017-04-12T04:28:54.837Z,90.94
2017-04-12T04:30:16.354Z,90.94
2017-04-12T04:31:38.825Z,91.51
2017-04-12T04:33:00.346Z,91.18
2017-04-12T04:34:21.823Z,91.85
2017-04-12T04:35:43.319Z,91.89
2017-04-12T04:37:04.838Z,91.94
2017-04-12T04:38:26.398Z,91.75
2017-04-12T04:39:48.808Z,91.85
2017-04-12T04:41:10.615Z,91.66
2017-04-12T04:42:32.891Z,91.66
2017-04-12T04:43:55.018Z,91.61
2017-04-12T04:45:17.401Z,91.42
2017-04-12T04:46:39.617Z,91.03
2017-04-12T04:48:01.239Z,90.47
2017-04-12T04:49:23.144Z,90.56
2017-04-12T04:50:45.207Z,90.56
2017-04-12T04:52:07.067Z,90.18
2017-04-12T04:53:29.202Z,89.8
2017-04-12T04:54:51.182Z,90.56
2017-04-12T04:56:13.700Z,90.28
2017-04-12T04:57:35.570Z,90.56
2017-04-12T04:58:58.058Z,90.66
2017-04-12T05:00:19.259Z,90.94
2017-04-12T05:01:41.358Z,90.7
2017-04-12T05:03:03.177Z,90.56
2017-04-12T05:04:24.684Z,90.32
2017-04-12T05:05:46.811Z,89.65
2017-04-12T05:07:08.600Z,89.94
2017-04-12T05:08:29.846Z,90.22
2017-04-12T05:09:51.790Z,89.75
2017-04-12T05:11:13.990Z,89.84
2017-04-12T05:12:36.684Z,89.94
2017-04-12T05:13:58.220Z,89.75
2017-04-12T05:15:20.423Z,90.13
2017-04-12T05:16:42.585Z,89.75
2017-04-12T05:18:05.224Z,90.32
2017-04-12T05:19:27.528Z,90.03
2017-04-12T05:20:49.654Z,89.56
2017-04-12T05:22:11.503Z,90.51
2017-04-12T05:23:33.599Z,90.89
2017-04-12T05:24:55.748Z,90.7
2017-04-12T05:26:17.605Z,90.8
2017-04-12T05:27:39.744Z,90.61
2017-04-12T05:29:01.948Z,90.8
2017-04-12T05:30:23.804Z,90.32
2017-04-12T05:31:46.253Z,90.42
2017-04-12T05:33:07.757Z,90.7
2017-04-12T05:34:29.573Z,90.42
2017-04-12T05:35:51.400Z,90.42
2017-04-12T05:37:13.955Z,90.42
2017-04-12T05:38:35.908Z,90.51
2017-04-12T05:39:58.056Z,90.03
2017-04-12T05:41:20.096Z,90.32
2017-04-12T05:42:41.608Z,90.51
2017-04-12T05:44:04.078Z,90.32
2017-04-12T05:45:26.214Z,90.32
2017-04-12T05:46:47.725Z,89.84
2017-04-12T05:48:09.258Z,89.47
2017-04-12T05:49:31.400Z,89.22
2017-04-12T05:50:53.522Z,89.32
2017-04-12T05:52:16.158Z,89.61
2017-04-12T05:53:38.440Z,88.65
2017-04-12T05:55:00.089Z,89.22
2017-04-12T05:56:21.983Z,89.03
2017-04-12T05:57:44.106Z,88.65
2017-04-12T05:59:06.558Z,89.22
2017-04-12T06:00:28.715Z,89.22
2017-04-12T06:01:51.117Z,88.56
2017-04-12T06:03:13.257Z,89.32
2017-04-12T06:04:34.773Z,88.08
2017-04-12T06:05:56.285Z,87.6
2017-04-12T06:07:18.399Z,87.65
2017-04-12T06:08:40.226Z,87.6
2017-04-12T06:10:02.064Z,87.84
2017-04-12T06:11:23.574Z,87.46
2017-04-12T06:12:45.363Z,86.69
2017-04-12T06:14:07.558Z,86.6
2017-04-12T06:15:29.080Z,85.78
2017-04-12T06:16:51.256Z,84.83
2017-04-12T06:18:13.967Z,84.92
2017-04-12T06:19:35.795Z,84.36
2017-04-12T06:20:57.758Z,83.12
2017-04-12T06:22:19.656Z,83.21
2017-04-12T06:23:41.779Z,83.21
2017-04-12T06:25:03.998Z,83.02
2017-04-12T06:26:26.270Z,83.88
2017-04-12T06:27:48.110Z,83.64
2017-04-12T06:29:10.277Z,83.06
2017-04-12T06:30:31.838Z,82.49
2017-04-12T06:31:53.676Z,82.11
2017-04-12T06:33:15.216Z,81.44
2017-04-12T06:34:36.668Z,80.68
2017-04-12T06:35:58.851Z,78.81
2017-04-12T06:37:21.199Z,77.86
2017-04-12T06:38:43.448Z,76.84
2017-04-12T06:40:05.901Z,76.94
2017-04-12T06:41:28.377Z,77.61
2017-04-12T06:42:50.216Z,77.8
2017-04-12T06:44:11.770Z,79.04
2017-04-12T06:45:33.660Z,79.48
2017-04-12T06:46:55.807Z,79.67
2017-04-12T06:48:18.584Z,80.68
2017-04-12T06:49:40.810Z,81.15
2017-04-12T06:51:03.356Z,81.06
2017-04-12T06:52:25.185Z,81.35
2017-04-12T06:53:47.133Z,82.3
2017-04-12T06:55:09.596Z,82.49
2017-04-12T06:56:31.458Z,82.2
2017-04-12T06:57:53.616Z,82.2
2017-04-12T06:59:15.243Z,82.11
2017-04-12T07:00:37.469Z,82.01
2017-04-12T07:02:00.013Z,82.11
2017-04-12T07:03:22.159Z,81.25
2017-04-12T07:04:44.099Z,81.63
2017-04-12T07:06:05.948Z,82.01
2017-04-12T07:07:28.179Z,82.3
2017-04-12T07:08:50.380Z,82.11
2017-04-12T07:10:12.209Z,82.11
2017-04-12T07:11:34.048Z,81.54
2017-04-12T07:12:56.809Z,81.54
2017-04-12T07:14:18.716Z,80.49
2017-04-12T07:15:41.199Z,81.25
2017-04-12T07:17:03.138Z,81.15
2017-04-12T07:18:25.377Z,80.58
2017-04-12T07:19:47.321Z,80.68
2017-04-12T07:21:09.220Z,81.35
2017-04-12T07:22:31.811Z,81.54
2017-04-12T07:23:54.630Z,82.49
2017-04-12T07:25:17.219Z,81.82
2017-04-12T07:26:39.374Z,82.4
2017-04-12T07:28:01.058Z,82.2
2017-04-12T07:29:23.004Z,81.25
2017-04-12T07:30:45.018Z,81.63
2017-04-12T07:32:06.541Z,82.11
2017-04-12T07:33:28.091Z,81.25
2017-04-12T07:34:50.158Z,81.15
2017-04-12T07:36:11.680Z,80.43
2017-04-12T07:37:34.169Z,80.24
2017-04-12T07:38:56.315Z,80.05
2017-04-12T07:40:18.464Z,79.77
2017-04-12T07:41:39.997Z,79.86
2017-04-12T07:43:02.167Z,80.15
2017-04-12T07:44:24.331Z,80.53
2017-04-12T07:45:47.194Z,80.39
2017-04-12T07:47:09.364Z,81.25
2017-04-12T07:48:31.517Z,81.15
2017-04-12T07:49:53.993Z,81.35
2017-04-12T07:51:16.218Z,81.54
2017-04-12T07:52:38.694Z,81.15
2017-04-12T07:54:00.917Z,81.35
2017-04-12T07:55:23.379Z,82.11
2017-04-12T07:56:45.522Z,82.4
2017-04-12T07:58:07.706Z,81.92
2017-04-12T07:59:29.847Z,81.63
2017-04-12T08:00:51.362Z,81.92
2017-04-12T08:02:13.908Z,81.82
2017-04-12T08:03:36.077Z,81.92
2017-04-12T08:04:58.524Z,81.44
2017-04-12T08:06:21.118Z,80.77
2017-04-12T08:07:43.577Z,79.67
2017-04-12T08:09:05.077Z,79.77
2017-04-12T08:10:27.286Z,79.38
2017-04-12T08:11:49.119Z,79.57
2017-04-12T08:13:11.885Z,79.86
2017-04-12T08:14:33.417Z,80.43
2017-04-12T08:15:55.338Z,79.38
2017-04-12T08:17:17.812Z,79
2017-04-12T08:18:40.555Z,78.75
2017-04-12T08:20:02.682Z,77.89
2017-04-12T08:21:24.825Z,77.13
2017-04-12T08:22:46.967Z,76.65
2017-04-12T08:24:09.454Z,76.03
2017-04-12T08:25:30.656Z,76.08
2017-04-12T08:26:52.828Z,76.18
2017-04-12T08:28:15.003Z,76.18
2017-04-12T08:29:37.490Z,76.56
2017-04-12T08:30:59.686Z,77.32
2017-04-12T08:32:21.502Z,77.51
2017-04-12T08:33:43.720Z,78.09
2017-04-12T08:35:06.585Z,77.86
2017-04-12T08:36:29.058Z,78.43
2017-04-12T08:37:51.007Z,78.72
2017-04-12T08:39:12.539Z,79.67
2017-04-12T08:40:35.268Z,78.81
2017-04-12T08:41:57.086Z,79.19
2017-04-12T08:43:19.059Z,79.1
2017-04-12T08:44:41.248Z,79.06
2017-04-12T08:46:03.825Z,80.3
2017-04-12T08:47:25.661Z,79.72
2017-04-12T08:48:47.499Z,79.72
2017-04-12T08:50:09.012Z,79.91
2017-04-12T08:51:31.527Z,79.57
2017-04-12T08:52:53.380Z,78.43
2017-04-12T08:54:15.906Z,78.05
2017-04-12T08:55:38.078Z,78.33
2017-04-12T08:57:00.805Z,77.42
2017-04-12T08:58:22.308Z,77.42
2017-04-12T08:59:44.546Z,76.94
2017-04-12T09:01:06.429Z,76.4
2017-04-12T09:02:28.835Z,76.88
2017-04-12T09:03:51.330Z,76.65
2017-04-12T09:05:13.210Z,77.03
2017-04-12T09:06:34.107Z,76.65
2017-04-12T09:07:56.227Z,76.65
2017-04-12T09:09:18.376Z,77.03
2017-04-12T09:10:40.519Z,76.94
2017-04-12T09:12:02.046Z,77.76
2017-04-12T09:13:24.457Z,77.32
2017-04-12T09:14:46.270Z,76.56
2017-04-12T09:16:08.134Z,76.37
2017-04-12T09:17:30.017Z,75.6
2017-04-12T09:18:52.767Z,76.37
2017-04-12T09:20:15.335Z,76.65
2017-04-12T09:21:37.515Z,76.18
2017-04-12T09:22:59.698Z,75.98
2017-04-12T09:24:21.770Z,75.89
2017-04-12T09:25:43.934Z,76.65
2017-04-12T09:27:06.217Z,75.7
2017-04-12T09:28:28.718Z,75.98
2017-04-12T09:29:51.517Z,75.89
2017-04-12T09:31:14.036Z,76.65
2017-04-12T09:32:36.538Z,77.03
2017-04-12T09:33:58.387Z,76.65
2017-04-12T09:35:20.566Z,76.18
2017-04-12T09:36:42.539Z,76.08
2017-04-12T09:38:04.987Z,75.98
2017-04-12T09:39:26.840Z,76.37
2017-04-12T09:40:49.018Z,75.89
2017-04-12T09:42:10.556Z,75.22
2017-04-12T09:43:32.424Z,75.74
2017-04-12T09:44:54.896Z,75.7
2017-04-12T09:46:17.754Z,76.18
2017-04-12T09:47:39.609Z,75.6
2017-04-12T09:49:01.453Z,76.75
2017-04-12T09:50:22.956Z,77
2017-04-12T09:51:45.414Z,77.86
2017-04-12T09:53:07.875Z,77.76
2017-04-12T09:54:30.034Z,77
2017-04-12T09:55:51.940Z,76.71
2017-04-12T09:57:14.357Z,76.9
2017-04-12T09:58:36.653Z,77
2017-04-12T09:59:58.173Z,77.61
2017-04-12T10:01:20.380Z,76.94
2017-04-12T10:02:42.176Z,76.08
2017-04-12T10:04:04.016Z,74.02
2017-04-12T10:05:26.167Z,72.78
2017-04-12T10:06:49.096Z,73.44
2017-04-12T10:08:11.733Z,73.63
2017-04-12T10:09:33.245Z,74.4
2017-04-12T10:10:54.742Z,73.44
2017-04-12T10:12:16.580Z,73.19
2017-04-12T10:13:38.727Z,72.33
2017-04-12T10:14:59.940Z,71.7
2017-04-12T10:16:22.417Z,71.38
2017-04-12T10:17:43.996Z,71.76
2017-04-12T10:19:06.746Z,72.39
2017-04-12T10:20:28.929Z,73.63
2017-04-12T10:21:51.095Z,74.78
2017-04-12T10:23:12.949Z,75.79
2017-04-12T10:24:35.387Z,76.27
2017-04-12T10:25:57.680Z,76.94
2017-04-12T10:27:19.190Z,77.03
2017-04-12T10:28:40.718Z,76.27
2017-04-12T10:30:02.877Z,76.71
2017-04-12T10:31:25.017Z,77
2017-04-12T10:32:47.160Z,77.28
2017-04-12T10:34:08.686Z,76.81
2017-04-12T10:35:31.134Z,76.81
2017-04-12T10:36:53.329Z,76.81
2017-04-12T10:38:15.167Z,77.19
2017-04-12T10:39:37.321Z,77
2017-04-12T10:40:59.746Z,76.9
2017-04-12T10:42:21.599Z,76.62
2017-04-12T10:43:43.435Z,76.18
2017-04-12T10:45:05.271Z,75.98
2017-04-12T10:46:27.030Z,75.13
2017-04-12T10:47:49.172Z,74.46
2017-04-12T10:49:11.016Z,73.73
2017-04-12T10:50:33.457Z,73.79
2017-04-12T10:51:56.208Z,74.27
2017-04-12T10:53:18.697Z,75.22
2017-04-12T10:54:40.838Z,74.93
2017-04-12T10:56:02.999Z,74.46
2017-04-12T10:57:25.896Z,75.89
2017-04-12T10:58:47.396Z,75.51
2017-04-12T11:00:09.580Z,76.18
2017-04-12T11:01:32.043Z,75.95
2017-04-12T11:02:54.516Z,76.14
2017-04-12T11:04:15.705Z,77
2017-04-12T11:05:37.911Z,76.9
2017-04-12T11:06:59.757Z,78.05
2017-04-12T11:08:22.234Z,77.67
2017-04-12T11:09:44.442Z,76.81
2017-04-12T11:11:06.889Z,76.9
2017-04-12T11:12:29.382Z,77.57
2017-04-12T11:13:51.485Z,77.76
2017-04-12T11:15:13.007Z,77.47
2017-04-12T11:16:34.849Z,76.62
2017-04-12T11:17:56.987Z,77.38
2017-04-12T11:19:19.441Z,78.05
2017-04-12T11:20:41.590Z,77.76
2017-04-12T11:22:03.822Z,77.76
2017-04-12T11:23:25.979Z,77.47
2017-04-12T11:24:48.773Z,78.43
2017-04-12T11:26:11.246Z,78.14
2017-04-12T11:27:33.258Z,78.14
2017-04-12T11:28:55.765Z,78.33
2017-04-12T11:30:18.523Z,78.62
2017-04-12T11:31:40.725Z,78.05
2017-04-12T11:33:02.575Z,78.43
2017-04-12T11:34:25.043Z,78.33
2017-04-12T11:35:47.778Z,78.52
2017-04-12T11:37:10.247Z,78.91
2017-04-12T11:38:32.097Z,78.52
2017-04-12T11:39:53.998Z,78.05
2017-04-12T11:41:16.735Z,77.67
2017-04-12T11:42:38.885Z,77.76
2017-04-12T11:44:00.724Z,77.38
2017-04-12T11:45:22.254Z,78.33
2017-04-12T11:46:44.378Z,77.95
2017-04-12T11:48:06.256Z,78.14
2017-04-12T11:49:28.386Z,78.43
2017-04-12T11:50:50.608Z,78.81
2017-04-12T11:52:12.782Z,78.23
2017-04-12T11:53:34.625Z,77.76
2017-04-12T11:54:56.795Z,77.57
2017-04-12T11:56:19.269Z,77.76
2017-04-12T11:57:41.734Z,77.76
2017-04-12T11:59:04.224Z,77.76
2017-04-12T12:00:26.388Z,78.14
2017-04-12T12:01:48.561Z,79
2017-04-12T12:03:10.848Z,79.1
2017-04-12T12:04:32.687Z,80.24
2017-04-12T12:05:54.533Z,81.2
2017-04-12T12:07:16.434Z,81.54
2017-04-12T12:08:38.585Z,81.67
2017-04-12T12:10:00.110Z,82.01
2017-04-12T12:11:22.267Z,81.15
2017-04-12T12:12:43.860Z,81.35
2017-04-12T12:14:05.995Z,80.68
2017-04-12T12:15:27.518Z,80.49
2017-04-12T12:16:49.672Z,79.72
2017-04-12T12:18:11.840Z,80.2
2017-04-12T12:19:34.359Z,79.63
2017-04-12T12:20:56.286Z,79.53
2017-04-12T12:22:18.818Z,80.01
2017-04-12T12:23:40.352Z,79.63
2017-04-12T12:25:02.795Z,79.63
2017-04-12T12:26:24.309Z,79.38
2017-04-12T12:27:46.496Z,79.19
2017-04-12T12:29:08.344Z,79.67
2017-04-12T12:30:31.036Z,79.1
2017-04-12T12:31:53.228Z,78.62
2017-04-12T12:33:15.382Z,78.23
2017-04-12T12:34:37.556Z,79.28
2017-04-12T12:36:00.419Z,80.05
2017-04-12T12:37:22.897Z,80.72
2017-04-12T12:38:45.048Z,80.24
2017-04-12T12:40:07.334Z,80.91
2017-04-12T12:41:28.799Z,81.48
2017-04-12T12:42:50.949Z,81.67
2017-04-12T12:44:12.778Z,82.34
2017-04-12T12:45:34.392Z,82.82
2017-04-12T12:46:56.795Z,81.48
2017-04-12T12:48:18.670Z,81.58
2017-04-12T12:49:40.206Z,82.24
2017-04-12T12:51:01.728Z,82.53
2017-04-12T12:52:23.555Z,82.53
2017-04-12T12:53:45.398Z,82.34
2017-04-12T12:55:07.576Z,83.29
2017-04-12T12:56:29.446Z,83.35
2017-04-12T12:57:51.437Z,85.54
2017-04-12T12:59:13.945Z,84.78
2017-04-12T13:00:35.891Z,84.11
2017-04-12T13:01:58.408Z,85.73
2017-04-12T13:03:21.138Z,86.21
2017-04-12T13:04:43.298Z,87.45
2017-04-12T13:06:04.819Z,87.16
2017-04-12T13:07:26.681Z,88.31
2017-04-12T13:08:48.622Z,88.88
2017-04-12T13:10:10.781Z,87.83
2017-04-12T13:11:33.279Z,87.74
2017-04-12T13:12:55.138Z,87.74
2017-04-12T13:14:17.615Z,87.83
2017-04-12T13:15:39.476Z,88.88
2017-04-12T13:17:01.506Z,88.12
2017-04-12T13:18:23.122Z,88.02
2017-04-12T13:19:45.613Z,87.98
2017-04-12T13:21:07.884Z,88.84
2017-04-12T13:22:30.056Z,88.26
2017-04-12T13:23:52.270Z,87.5
2017-04-12T13:25:14.759Z,87.4
2017-04-12T13:26:36.910Z,87.5
2017-04-12T13:27:59.136Z,87.6
2017-04-12T13:29:21.337Z,87.6
2017-04-12T13:30:43.787Z,88.93
2017-04-12T13:32:05.653Z,89.31
2017-04-12T13:33:28.267Z,88.74
2017-04-12T13:34:50.765Z,90.55
2017-04-12T13:36:13.675Z,89.89
2017-04-12T13:37:36.185Z,90.74
2017-04-12T13:38:57.831Z,89.79
2017-04-12T13:40:19.992Z,91.88
2017-04-12T13:41:42.466Z,90.36
2017-04-12T13:43:04.305Z,90.84
2017-04-12T13:44:25.566Z,91.22
2017-04-12T13:45:47.427Z,91.41
2017-04-12T13:47:09.919Z,91.03
2017-04-12T13:48:32.068Z,91.79
2017-04-12T13:49:54.236Z,92.08
2017-04-12T13:51:16.080Z,91.88
2017-04-12T13:52:38.586Z,92.36
2017-04-12T13:54:00.459Z,92.46
2017-04-12T13:55:22.352Z,92.74
2017-04-12T13:56:44.206Z,92.84
2017-04-12T13:58:06.442Z,93.08
2017-04-12T13:59:28.608Z,93.65
2017-04-12T14:00:50.157Z,93.65
2017-04-12T14:02:12.656Z,94.7
2017-04-12T14:03:35.094Z,94.03
2017-04-12T14:04:57.269Z,94.41
2017-04-12T14:06:19.422Z,92.74
2017-04-12T14:07:41.151Z,93.03
2017-04-12T14:09:03.269Z,92.36
2017-04-12T14:10:25.438Z,93.51
2017-04-12T14:11:47.295Z,92.46
2017-04-12T14:13:09.877Z,91.79
2017-04-12T14:14:32.659Z,92.93
2017-04-12T14:15:55.149Z,93.12
2017-04-12T14:17:17.629Z,93.03
2017-04-12T14:18:39.502Z,93.22
2017-04-12T14:20:02.081Z,92.65
2017-04-12T14:21:24.369Z,94.08
2017-04-12T14:22:46.539Z,93.32
2017-04-12T14:24:09.032Z,93.51
2017-04-12T14:25:31.478Z,93.32
2017-04-12T14:26:53.618Z,93.7
2017-04-12T14:28:15.896Z,94.84
2017-04-12T14:29:37.476Z,93.41
2017-04-12T14:31:00.418Z,95.12
2017-04-12T14:32:22.919Z,95.03
2017-04-12T14:33:45.410Z,93.03
2017-04-12T14:35:07.884Z,93.51
2017-04-12T14:36:30.798Z,93.98
2017-04-12T14:37:52.659Z,93.79
2017-04-12T14:39:14.853Z,94.46
2017-04-12T14:40:36.702Z,95.22
2017-04-12T14:41:59.001Z,95.51
2017-04-12T14:43:20.846Z,96.17
2017-04-12T14:44:42.721Z,95.98
2017-04-12T14:46:04.689Z,95.51
2017-04-12T14:47:27.129Z,95.98
2017-04-12T14:48:49.309Z,95.89
2017-04-12T14:50:11.807Z,95.79
2017-04-12T14:51:34.287Z,97.03
2017-04-12T14:52:56.864Z,96.75
2017-04-12T14:54:19.051Z,96.65
2017-04-12T14:55:41.278Z,96.46
2017-04-12T14:57:03.798Z,97.03
2017-04-12T14:58:26.281Z,96.65
2017-04-12T14:59:48.436Z,96.75
2017-04-12T15:01:10.068Z,96.75
2017-04-12T15:02:32.248Z,97.13
2017-04-12T15:03:54.894Z,96.75
2017-04-12T15:05:17.064Z,95.98
2017-04-12T15:06:39.258Z,96.75
2017-04-12T15:08:01.776Z,95.61
2017-04-12T15:09:24.569Z,97.13
2017-04-12T15:10:46.415Z,97.03
2017-04-12T15:12:08.387Z,96.84
2017-04-12T15:13:30.249Z,96.84
2017-04-12T15:14:52.227Z,96.75
2017-04-12T15:16:14.468Z,95.79
2017-04-12T15:17:36.634Z,95.32
2017-04-12T15:18:58.809Z,95.7
2017-04-12T15:20:20.957Z,96.56
2017-04-12T15:21:43.036Z,97.13
2017-04-12T15:23:04.910Z,96.08
2017-04-12T15:24:26.774Z,97.13
2017-04-12T15:25:48.419Z,96.36
2017-04-12T15:27:10.616Z,97.13
2017-04-12T15:28:33.252Z,97.41
2017-04-12T15:29:55.408Z,96.94
2017-04-12T15:31:17.879Z,97.51
2017-04-12T15:32:40.187Z,97.22
2017-04-12T15:34:02.348Z,96.84
2017-04-12T15:35:24.961Z,97.13
2017-04-12T15:36:47.432Z,95.89
2017-04-12T15:38:09.285Z,96.03
2017-04-12T15:39:31.434Z,96.56
2017-04-12T15:40:53.626Z,96.51
2017-04-12T15:42:16.496Z,96.13
2017-04-12T15:43:38.658Z,96.03
2017-04-12T15:45:00.691Z,96.13
2017-04-12T15:46:22.858Z,96.8
2017-04-12T15:47:45.359Z,97.99
2017-04-12T15:49:07.997Z,98.36
2017-04-12T15:50:30.162Z,98.94
2017-04-12T15:51:52.706Z,98.56
2017-04-12T15:53:15.177Z,99.99
2017-04-12T15:54:37.353Z,99.94
2017-04-12T15:55:59.529Z,99.65
2017-04-12T15:57:21.384Z,99.99
2017-04-12T15:58:43.807Z,99.99
2017-04-12T16:00:06.298Z,99.99
2017-04-12T16:01:28.818Z,99.99
2017-04-12T16:02:51.318Z,99.99
2017-04-12T16:04:13.578Z,99.99
2017-04-12T16:05:36.078Z,99.99
2017-04-12T16:06:57.907Z,99.99
2017-04-12T16:08:19.766Z,99.99
2017-04-12T16:09:41.547Z,99.99
2017-04-12T16:11:03.210Z,99.99
2017-04-12T16:12:25.725Z,99.99
2017-04-12T16:13:47.921Z,99.99
2017-04-12T16:15:10.346Z,99.99
2017-04-12T16:16:31.886Z,99.99
2017-04-12T16:17:53.733Z,99.99
2017-04-12T16:19:15.386Z,99.99
2017-04-12T16:20:37.871Z,99.99
2017-04-12T16:22:00.347Z,99.99
2017-04-12T16:23:22.666Z,99.99
2017-04-12T16:24:44.837Z,99.99
2017-04-12T16:26:06.978Z,99.99
2017-04-12T16:27:29.248Z,99.99
2017-04-12T16:28:51.720Z,99.99
2017-04-12T16:30:14.349Z,99.99
2017-04-12T16:31:36.506Z,99.99
2017-04-12T16:32:58.453Z,99.99
2017-04-12T16:34:21.116Z,99.99
2017-04-12T16:35:43.018Z,99.99
2017-04-12T16:37:05.305Z,99.99
2017-04-12T16:38:27.487Z,99.99
2017-04-12T16:39:49.661Z,99.99
2017-04-12T16:41:12.242Z,99.99
2017-04-12T16:42:35.015Z,99.99
2017-04-12T16:43:56.860Z,99.99
2017-04-12T16:45:19.348Z,99.99
2017-04-12T16:46:41.951Z,99.99
2017-04-12T16:48:04.755Z,99.99
2017-04-12T16:49:27.101Z,99.99
2017-04-12T16:50:49.335Z,99.99
2017-04-12T16:52:11.210Z,99.99
2017-04-12T16:53:33.309Z,99.99
2017-04-12T16:54:55.472Z,99.99
2017-04-12T16:56:17.631Z,99.99
2017-04-12T16:57:39.891Z,99.99
2017-04-12T16:59:02.828Z,99.99
2017-04-12T17:00:25.102Z,99.99
2017-04-12T17:01:47.659Z,99.99
2017-04-12T17:03:09.619Z,99.99
2017-04-12T17:04:32.072Z,99.99
2017-04-12T17:05:54.786Z,99.99
2017-04-12T17:07:16.646Z,99.99
2017-04-12T17:08:38.635Z,99.99
2017-04-12T17:10:01.378Z,99.99
2017-04-12T17:11:23.853Z,99.99
2017-04-12T17:12:46.107Z,99.99
2017-04-12T17:14:08.307Z,99.99
2017-04-12T17:15:30.500Z,99.99
2017-04-12T17:16:53.073Z,99.99
2017-04-12T17:18:15.565Z,99.99
2017-04-12T17:19:37.452Z,99.99
2017-04-12T17:20:59.933Z,99.99
2017-04-12T17:22:22.115Z,99.99
2017-04-12T17:23:44.487Z,99.99
2017-04-12T17:25:06.706Z,99.99
2017-04-12T17:26:29.708Z,99.99
2017-04-12T17:27:51.640Z,99.99
2017-04-12T17:29:13.886Z,99.99
2017-04-12T17:30:36.039Z,99.99
2017-04-12T17:31:58.924Z,99.99
2017-04-12T17:33:21.430Z,99.99
2017-04-12T17:34:43.696Z,99.99
2017-04-12T17:36:06.285Z,99.99
2017-04-12T17:37:29.077Z,99.99
2017-04-12T17:38:51.280Z,99.99
2017-04-12T17:40:13.486Z,99.99
2017-04-12T17:41:35.669Z,99.99